createdAt,value
2022-11-12T00:00:27.920Z,92.82
2022-11-12T00:02:48.502Z,93.15
2022-11-12T00:05:09.134Z,92.98
2022-11-12T00:07:31.383Z,92.93
2022-11-12T00:09:53.601Z,93.18
2022-11-12T00:12:15.814Z,93.02
2022-11-12T00:14:38.084Z,92.96
2022-11-12T00:17:00.284Z,92.94
2022-11-12T00:19:22.541Z,92.96
2022-11-12T00:21:44.755Z,93.62
2022-11-12T00:24:07.055Z,93.16
2022-11-12T00:26:29.261Z,93.07
2022-11-12T00:28:51.499Z,93.66
2022-11-12T00:31:13.719Z,93.64
2022-11-12T00:33:39.716Z,92.84
2022-11-12T00:36:02.006Z,93.35
2022-11-12T00:38:24.537Z,93.14
2022-11-12T00:40:46.917Z,92.76
2022-11-12T00:43:09.099Z,93.05
2022-11-12T00:45:31.322Z,92.81
2022-11-12T00:47:56.875Z,93.53
2022-11-12T00:50:19.096Z,93.23
2022-11-12T00:52:41.384Z,92.83
2022-11-12T00:55:04.318Z,92.77
2022-11-12T00:57:26.580Z,92.53
2022-11-12T00:59:48.809Z,93.13
2022-11-12T01:02:11.106Z,93.57
2022-11-12T01:04:33.467Z,93.84
2022-11-12T01:06:55.777Z,93.82
2022-11-12T01:09:18.158Z,93.65
2022-11-12T01:11:40.667Z,93.66
2022-11-12T01:14:07.029Z,93.69
2022-11-12T01:16:31.447Z,93.56
2022-11-12T01:18:58.304Z,93.47
2022-11-12T01:21:20.619Z,93.66
2022-11-12T01:23:43.352Z,93.35
2022-11-12T01:26:12.761Z,93.53
2022-11-12T01:28:35.043Z,93.57
2022-11-12T01:30:57.240Z,93.65
2022-11-12T01:33:19.439Z,93.72
2022-11-12T01:35:41.672Z,93.93
2022-11-12T01:38:03.909Z,94.01
2022-11-12T01:40:26.142Z,94.13
2022-11-12T01:42:52.686Z,93.74
2022-11-12T01:45:18.222Z,93.57
2022-11-12T01:47:40.604Z,93.76
2022-11-12T01:50:10.677Z,93.45
2022-11-12T01:52:53.637Z,93.57
2022-11-12T01:55:27.666Z,93.24
2022-11-12T01:57:52.737Z,92.97
2022-11-12T02:00:15.964Z,93.25
2022-11-12T02:02:38.334Z,93.49
2022-11-12T02:05:00.815Z,93.52
2022-11-12T02:07:23.474Z,93.00
2022-11-12T02:09:45.709Z,93.29
2022-11-12T02:12:07.964Z,93.05
2022-11-12T02:14:30.239Z,92.92
2022-11-12T02:16:52.468Z,93.39
2022-11-12T02:19:15.810Z,92.98
2022-11-12T02:21:38.102Z,92.61
2022-11-12T02:24:01.958Z,92.59
2022-11-12T02:26:24.167Z,92.85
2022-11-12T02:28:46.395Z,92.69
2022-11-12T02:31:08.597Z,92.29
2022-11-12T02:33:30.807Z,92.46
2022-11-12T02:35:53.053Z,92.41
2022-11-12T02:38:15.290Z,92.38
2022-11-12T02:40:37.559Z,92.26
2022-11-12T02:43:00.148Z,92.19
2022-11-12T02:45:22.380Z,91.97
2022-11-12T02:47:44.867Z,92.00
2022-11-12T02:50:07.620Z,91.82
2022-11-12T02:52:29.859Z,91.61
2022-11-12T02:54:52.100Z,91.49
2022-11-12T02:57:14.315Z,91.83
2022-11-12T02:59:36.551Z,91.38
2022-11-12T03:01:58.774Z,91.04
2022-11-12T03:04:20.989Z,91.12
2022-11-12T03:06:43.303Z,91.22
2022-11-12T03:09:05.623Z,91.16
2022-11-12T03:11:27.875Z,90.72
2022-11-12T03:13:50.401Z,91.07
2022-11-12T03:16:12.703Z,91.25
2022-11-12T03:18:34.931Z,91.00
2022-11-12T03:20:57.167Z,91.17
2022-11-12T03:23:19.406Z,91.03
2022-11-12T03:25:41.646Z,90.78
2022-11-12T03:28:08.549Z,90.89
2022-11-12T03:30:32.563Z,91.12
2022-11-12T03:32:54.799Z,91.20
2022-11-12T03:35:17.032Z,90.87
2022-11-12T03:37:39.520Z,90.62
2022-11-12T03:40:01.759Z,90.84
2022-11-12T03:42:23.994Z,91.02
2022-11-12T03:44:46.354Z,90.44
2022-11-12T03:47:08.607Z,90.68
2022-11-12T03:49:31.054Z,90.86
2022-11-12T03:51:53.310Z,91.04
2022-11-12T03:54:15.513Z,91.38
2022-11-12T03:56:37.758Z,91.41
2022-11-12T03:58:59.999Z,91.66
2022-11-12T04:01:22.281Z,91.96
2022-11-12T04:03:44.553Z,91.59
2022-11-12T04:06:25.556Z,92.23
2022-11-12T04:08:47.784Z,92.06
2022-11-12T04:11:14.818Z,92.22
2022-11-12T04:13:38.635Z,92.38
2022-11-12T04:16:30.175Z,92.63
2022-11-12T04:19:12.122Z,92.56
2022-11-12T04:21:56.403Z,92.91
2022-11-12T04:24:38.290Z,92.68
2022-11-12T04:27:00.503Z,93.20
2022-11-12T04:29:41.553Z,93.19
2022-11-12T04:32:03.783Z,93.29
2022-11-12T04:34:28.787Z,93.39
2022-11-12T04:36:51.025Z,93.85
2022-11-12T04:39:13.250Z,93.67
2022-11-12T04:41:54.207Z,94.07
2022-11-12T04:44:34.874Z,94.15
2022-11-12T04:46:57.114Z,93.97
2022-11-12T04:49:19.330Z,94.20
2022-11-12T04:52:00.161Z,94.30
2022-11-12T04:54:22.387Z,94.77
2022-11-12T04:56:44.591Z,94.82
2022-11-12T04:59:06.812Z,95.27
2022-11-12T05:01:29.037Z,95.23
2022-11-12T05:03:51.368Z,95.57
2022-11-12T05:06:32.403Z,95.73
2022-11-12T05:08:54.653Z,96.00
2022-11-12T05:11:16.843Z,95.70
2022-11-12T05:13:39.068Z,96.17
2022-11-12T05:16:01.287Z,95.80
2022-11-12T05:18:23.798Z,96.21
2022-11-12T05:20:46.129Z,96.28
2022-11-12T05:23:10.396Z,96.54
2022-11-12T05:25:32.637Z,97.01
2022-11-12T05:27:54.789Z,97.00
2022-11-12T05:30:17.086Z,97.37
2022-11-12T05:32:39.299Z,96.82
2022-11-12T05:35:01.571Z,97.10
2022-11-12T05:37:23.837Z,96.92
2022-11-12T05:39:46.052Z,96.83
2022-11-12T05:42:13.399Z,97.33
2022-11-12T05:44:36.423Z,97.37
2022-11-12T05:46:58.643Z,97.12
2022-11-12T05:49:20.865Z,97.06
2022-11-12T05:51:43.133Z,97.12
2022-11-12T05:54:05.482Z,96.89
2022-11-12T05:56:27.820Z,97.01
2022-11-12T05:58:50.127Z,96.95
2022-11-12T06:01:12.384Z,96.78
2022-11-12T06:03:34.630Z,96.85
2022-11-12T06:05:56.835Z,96.69
2022-11-12T06:08:19.187Z,96.70
2022-11-12T06:10:41.418Z,96.66
2022-11-12T06:13:03.687Z,96.75
2022-11-12T06:15:27.133Z,96.47
2022-11-12T06:17:49.364Z,96.24
2022-11-12T06:20:11.897Z,96.42
2022-11-12T06:22:34.121Z,96.15
2022-11-12T06:24:56.339Z,96.18
2022-11-12T06:27:18.578Z,96.29
2022-11-12T06:29:40.917Z,95.99
2022-11-12T06:32:03.232Z,96.08
2022-11-12T06:34:25.422Z,95.92
2022-11-12T06:36:48.862Z,96.04
2022-11-12T06:39:12.274Z,95.86
2022-11-12T06:41:34.572Z,95.77
2022-11-12T06:43:56.817Z,95.98
2022-11-12T06:46:19.106Z,95.55
2022-11-12T06:48:41.397Z,95.65
2022-11-12T06:51:08.273Z,95.52
2022-11-12T06:53:30.491Z,95.18
2022-11-12T06:55:52.764Z,95.29
2022-11-12T06:58:14.991Z,94.96
2022-11-12T07:00:37.251Z,95.43
2022-11-12T07:02:59.481Z,95.07
2022-11-12T07:05:21.696Z,95.03
2022-11-12T07:07:43.938Z,94.73
2022-11-12T07:10:06.512Z,94.82
2022-11-12T07:12:28.725Z,94.74
2022-11-12T07:14:50.999Z,94.98
2022-11-12T07:17:13.215Z,94.84
2022-11-12T07:19:35.449Z,95.04
2022-11-12T07:21:57.645Z,94.61
2022-11-12T07:24:19.870Z,94.76
2022-11-12T07:26:47.326Z,94.21
2022-11-12T07:29:09.990Z,94.72
2022-11-12T07:31:32.237Z,94.25
2022-11-12T07:33:54.452Z,94.09
2022-11-12T07:36:17.981Z,94.17
2022-11-12T07:38:40.799Z,93.84
2022-11-12T07:41:05.585Z,94.16
2022-11-12T07:43:29.184Z,94.10
2022-11-12T07:45:51.395Z,93.87
2022-11-12T07:48:13.622Z,93.89
2022-11-12T07:50:35.842Z,93.97
2022-11-12T07:53:01.191Z,93.97
2022-11-12T07:55:23.405Z,93.90
2022-11-12T07:57:45.623Z,94.02
2022-11-12T07:59:47.638Z,93.83
2022-11-12T08:01:50.323Z,93.77
2022-11-12T08:03:53.676Z,94.13
2022-11-12T08:05:56.360Z,94.09
2022-11-12T08:07:59.583Z,94.04
2022-11-12T08:10:02.034Z,93.86
2022-11-12T08:12:04.512Z,93.38
2022-11-12T08:14:06.773Z,93.44
2022-11-12T08:16:09.550Z,93.53
2022-11-12T08:18:11.982Z,93.22
2022-11-12T08:20:14.623Z,93.38
2022-11-12T08:22:16.553Z,92.79
2022-11-12T08:24:18.772Z,93.13
2022-11-12T08:26:21.046Z,92.83
2022-11-12T08:28:23.858Z,92.78
2022-11-12T08:30:27.065Z,92.45
2022-11-12T08:32:29.634Z,92.77
2022-11-12T08:34:32.482Z,92.85
2022-11-12T08:36:34.564Z,92.63
2022-11-12T08:38:36.604Z,92.45
2022-11-12T08:40:39.213Z,92.09
2022-11-12T08:42:41.985Z,92.12
2022-11-12T08:44:44.543Z,92.18
2022-11-12T08:46:47.434Z,92.36
2022-11-12T08:48:50.090Z,92.20
2022-11-12T08:50:52.776Z,92.05
2022-11-12T08:53:07.295Z,92.08
2022-11-12T08:55:09.708Z,92.01
2022-11-12T08:57:11.587Z,92.33
2022-11-12T08:59:14.479Z,92.60
2022-11-12T09:01:16.779Z,92.23
2022-11-12T09:03:20.880Z,92.00
2022-11-12T09:05:23.717Z,91.95
2022-11-12T09:07:48.675Z,91.74
2022-11-12T09:09:49.210Z,92.04
2022-11-12T09:11:51.134Z,92.28
2022-11-12T09:13:53.505Z,92.06
2022-11-12T09:16:00.439Z,91.97
2022-11-12T09:18:05.989Z,91.93
2022-11-12T09:20:09.072Z,92.19
2022-11-12T09:22:11.419Z,92.08
2022-11-12T09:24:13.782Z,91.71
2022-11-12T09:26:16.051Z,91.45
2022-11-12T09:28:18.635Z,91.42
2022-11-12T09:30:20.891Z,91.45
2022-11-12T09:32:22.830Z,91.20
2022-11-12T09:34:24.768Z,91.68
2022-11-12T09:36:26.916Z,91.47
2022-11-12T09:38:29.213Z,91.30
2022-11-12T09:40:53.070Z,91.47
2022-11-12T09:42:55.940Z,91.21
2022-11-12T09:45:01.788Z,91.29
2022-11-12T09:47:27.780Z,91.03
2022-11-12T09:49:50.571Z,90.67
2022-11-12T09:52:16.868Z,90.71
2022-11-12T09:54:39.117Z,90.72
2022-11-12T09:57:01.338Z,90.45
2022-11-12T09:59:26.713Z,90.34
2022-11-12T10:02:24.300Z,89.99
2022-11-12T10:04:54.354Z,90.34
2022-11-12T10:07:59.969Z,90.50
2022-11-12T10:10:57.684Z,90.48
2022-11-12T10:13:38.117Z,90.78
2022-11-12T10:16:06.431Z,90.46
2022-11-12T10:18:34.081Z,90.03
2022-11-12T10:20:46.478Z,89.65
2022-11-12T10:23:05.715Z,89.52
2022-11-12T10:25:17.259Z,89.36
2022-11-12T10:27:21.221Z,89.64
2022-11-12T10:29:39.133Z,89.90
2022-11-12T10:31:41.839Z,89.85
2022-11-12T10:33:44.694Z,89.83
2022-11-12T10:35:47.724Z,89.90
2022-11-12T10:38:04.983Z,90.06
2022-11-12T10:40:29.367Z,90.56
2022-11-12T10:42:32.227Z,90.53
2022-11-12T10:44:34.827Z,90.56
2022-11-12T10:46:37.709Z,90.52
2022-11-12T10:48:40.110Z,90.73
2022-11-12T10:50:43.196Z,91.17
2022-11-12T10:53:02.236Z,91.12
2022-11-12T10:55:16.561Z,91.05
2022-11-12T10:57:19.949Z,91.15
2022-11-12T10:59:25.429Z,91.51
2022-11-12T11:01:29.888Z,91.21
2022-11-12T11:03:37.452Z,91.25
2022-11-12T11:06:03.969Z,91.15
2022-11-12T11:08:06.461Z,91.16
2022-11-12T11:10:22.711Z,91.25
2022-11-12T11:12:30.205Z,91.21
2022-11-12T11:14:33.741Z,91.13
2022-11-12T11:16:54.843Z,91.16
2022-11-12T11:19:02.905Z,90.96
2022-11-12T11:21:25.288Z,90.47
2022-11-12T11:23:59.323Z,90.51
2022-11-12T11:26:22.325Z,90.40
2022-11-12T11:28:39.479Z,90.64
2022-11-12T11:31:08.570Z,90.75
2022-11-12T11:33:45.112Z,90.79
2022-11-12T11:36:19.364Z,90.91
2022-11-12T11:38:36.053Z,90.97
2022-11-12T11:40:53.331Z,91.09
2022-11-12T11:43:03.893Z,91.17
2022-11-12T11:45:17.291Z,91.00
2022-11-12T11:47:59.382Z,91.23
2022-11-12T11:50:19.385Z,91.08
2022-11-12T11:52:27.283Z,90.75
2022-11-12T11:54:35.619Z,90.84
2022-11-12T11:56:43.016Z,90.76
2022-11-12T11:58:45.302Z,90.82
2022-11-12T12:00:51.779Z,90.98
2022-11-12T12:03:14.003Z,90.66
2022-11-12T12:05:33.950Z,90.61
2022-11-12T12:07:56.953Z,90.55
2022-11-12T12:10:34.792Z,90.57
2022-11-12T12:13:00.799Z,90.50
2022-11-12T12:15:18.305Z,90.80
2022-11-12T12:17:37.703Z,90.42
2022-11-12T12:20:02.504Z,90.31
2022-11-12T12:22:08.069Z,90.14
2022-11-12T12:24:21.233Z,90.12
2022-11-12T12:26:38.020Z,90.05
2022-11-12T12:28:43.952Z,89.90
2022-11-12T12:30:48.443Z,89.90
2022-11-12T12:33:02.856Z,89.46
2022-11-12T12:35:16.824Z,89.54
2022-11-12T12:37:35.369Z,89.33
2022-11-12T12:39:48.344Z,89.22
2022-11-12T12:41:57.198Z,89.30
2022-11-12T12:44:04.693Z,89.15
2022-11-12T12:46:07.530Z,89.10
2022-11-12T12:48:19.520Z,88.90
2022-11-12T12:50:21.653Z,88.86
2022-11-12T12:52:23.910Z,88.53
2022-11-12T12:54:35.800Z,88.74
2022-11-12T12:56:48.204Z,88.77
2022-11-12T12:58:50.577Z,88.55
2022-11-12T13:00:58.546Z,88.99
2022-11-12T13:03:01.149Z,89.00
2022-11-12T13:05:03.913Z,89.18
2022-11-12T13:07:10.718Z,89.47
2022-11-12T13:09:13.566Z,89.23
2022-11-12T13:12:02.024Z,89.25
2022-11-12T13:14:36.484Z,89.65
2022-11-12T13:16:52.592Z,89.64
2022-11-12T13:18:55.356Z,89.69
2022-11-12T13:21:14.916Z,89.71
2022-11-12T13:24:03.350Z,89.87
2022-11-12T13:26:43.910Z,90.01
2022-11-12T13:29:24.851Z,89.93
2022-11-12T13:31:47.083Z,90.03
2022-11-12T13:34:19.885Z,89.88
2022-11-12T13:36:28.633Z,89.85
2022-11-12T13:38:30.935Z,89.58
2022-11-12T13:40:48.018Z,89.85
2022-11-12T13:42:50.265Z,90.27
2022-11-12T13:44:56.136Z,89.92
2022-11-12T13:46:58.443Z,90.16
2022-11-12T13:49:06.968Z,90.12
2022-11-12T13:51:32.214Z,90.12
2022-11-12T13:53:34.205Z,89.76
2022-11-12T13:55:36.913Z,89.89
2022-11-12T13:57:39.430Z,89.84
2022-11-12T13:59:41.366Z,90.37
2022-11-12T14:01:43.420Z,89.94
2022-11-12T14:03:48.345Z,89.85
2022-11-12T14:05:52.135Z,89.90
2022-11-12T14:08:06.669Z,90.23
2022-11-12T14:10:33.711Z,89.93
2022-11-12T14:12:52.698Z,89.98
2022-11-12T14:17:25.654Z,90.49
2022-11-12T14:19:47.662Z,90.42
2022-11-12T14:22:01.240Z,90.40
2022-11-12T14:24:04.213Z,90.54
2022-11-12T14:26:06.345Z,90.46
2022-11-12T14:28:27.775Z,90.34
2022-11-12T14:30:32.236Z,90.06
2022-11-12T14:32:41.475Z,90.30
2022-11-12T14:34:44.248Z,90.13
2022-11-12T14:36:48.148Z,90.11
2022-11-12T14:38:56.470Z,90.45
2022-11-12T14:41:09.669Z,90.46
2022-11-12T14:43:38.855Z,90.19
2022-11-12T14:45:52.481Z,90.29
2022-11-12T14:47:55.243Z,90.63
2022-11-12T14:49:57.776Z,90.36
2022-11-12T14:52:05.808Z,90.63
2022-11-12T14:54:09.738Z,90.61
2022-11-12T14:56:28.900Z,90.69
2022-11-12T14:58:33.424Z,90.60
2022-11-12T15:00:37.694Z,90.96
2022-11-12T15:02:53.884Z,90.76
2022-11-12T15:05:01.367Z,90.58
2022-11-12T15:07:04.487Z,90.64
2022-11-12T15:09:07.047Z,90.71
2022-11-12T15:11:42.586Z,90.94
2022-11-12T15:13:45.080Z,90.82
2022-11-12T15:16:04.835Z,91.07
2022-11-12T15:18:14.632Z,90.94
2022-11-12T15:20:19.018Z,91.34
2022-11-12T15:22:22.190Z,91.48
2022-11-12T15:24:35.247Z,91.48
2022-11-12T15:26:42.452Z,91.44
2022-11-12T15:29:01.728Z,91.99
2022-11-12T15:31:18.688Z,92.18
2022-11-12T15:33:24.237Z,92.12
2022-11-12T15:35:26.698Z,92.37
2022-11-12T15:37:29.548Z,92.47
2022-11-12T15:39:33.482Z,92.82
2022-11-12T15:41:35.461Z,92.46
2022-11-12T15:43:42.875Z,92.43
2022-11-12T15:45:50.708Z,92.51
2022-11-12T15:47:53.574Z,92.77
2022-11-12T15:49:57.349Z,92.53
2022-11-12T15:51:59.425Z,92.78
2022-11-12T15:54:02.224Z,92.85
2022-11-12T15:56:04.825Z,92.82
2022-11-12T15:58:07.360Z,92.99
2022-11-12T16:00:17.259Z,93.05
2022-11-12T16:02:19.136Z,93.02
2022-11-12T16:04:21.087Z,93.08
2022-11-12T16:06:22.973Z,93.42
2022-11-12T16:08:25.098Z,93.36
2022-11-12T16:10:27.066Z,93.87
2022-11-12T16:12:29.567Z,93.73
2022-11-12T16:14:31.542Z,93.68
2022-11-12T16:16:33.785Z,93.67
2022-11-12T16:18:35.721Z,94.18
2022-11-12T16:20:37.847Z,94.10
2022-11-12T16:22:39.832Z,94.02
2022-11-12T16:24:42.040Z,93.93
2022-11-12T16:26:43.974Z,94.22
2022-11-12T16:28:45.952Z,94.53
2022-11-12T16:30:47.936Z,94.44
2022-11-12T16:32:50.066Z,94.62
2022-11-12T16:34:54.738Z,94.38
2022-11-12T16:37:00.446Z,94.78
2022-11-12T16:39:02.413Z,94.88
2022-11-12T16:41:04.307Z,95.02
2022-11-12T16:43:06.425Z,95.31
2022-11-12T16:45:08.801Z,95.14
2022-11-12T16:47:10.702Z,95.15
2022-11-12T16:49:13.583Z,95.02
2022-11-12T16:51:17.862Z,95.32
2022-11-12T16:53:19.785Z,95.27
2022-11-12T16:55:21.690Z,95.37
2022-11-12T16:57:23.678Z,95.52
2022-11-12T16:59:25.681Z,95.33
2022-11-12T17:01:29.975Z,95.49
2022-11-12T17:03:32.698Z,95.27
2022-11-12T17:05:35.336Z,95.69
2022-11-12T17:07:37.471Z,95.68
2022-11-12T17:09:39.485Z,95.62
2022-11-12T17:11:41.383Z,95.63
2022-11-12T17:13:43.738Z,95.45
2022-11-12T17:15:46.365Z,96.03
2022-11-12T17:17:49.280Z,95.45
2022-11-12T17:19:52.211Z,95.62
2022-11-12T17:21:54.520Z,95.87
2022-11-12T17:23:58.002Z,95.45
2022-11-12T17:26:04.840Z,95.48
2022-11-12T17:28:07.458Z,95.75
2022-11-12T17:30:11.779Z,95.83
2022-11-12T17:32:13.801Z,95.93
2022-11-12T17:34:16.622Z,95.69
2022-11-12T17:36:22.510Z,95.42
2022-11-12T17:38:24.530Z,95.13
2022-11-12T17:40:26.486Z,95.16
2022-11-12T17:42:28.413Z,95.34
2022-11-12T17:44:30.351Z,95.27
2022-11-12T17:46:36.025Z,95.48
2022-11-12T17:48:38.029Z,95.14
2022-11-12T17:50:39.941Z,95.28
2022-11-12T17:52:41.921Z,95.70
2022-11-12T17:54:44.736Z,95.83
2022-11-12T17:56:48.405Z,95.93
2022-11-12T17:58:51.748Z,95.91
2022-11-12T18:00:53.844Z,96.13
2022-11-12T18:02:56.433Z,96.12
2022-11-12T18:05:16.949Z,96.52
2022-11-12T18:07:37.463Z,96.44
2022-11-12T18:09:59.700Z,96.20
2022-11-12T18:12:21.905Z,96.56
2022-11-12T18:14:44.232Z,96.61
2022-11-12T18:17:06.493Z,96.61
2022-11-12T18:19:28.742Z,96.46
2022-11-12T18:21:52.897Z,96.49
2022-11-12T18:24:15.624Z,96.88
2022-11-12T18:26:37.824Z,96.74
2022-11-12T18:29:00.229Z,96.76
2022-11-12T18:31:22.786Z,96.91
2022-11-12T18:33:45.006Z,97.13
2022-11-12T18:36:13.686Z,97.13
2022-11-12T18:38:36.259Z,97.29
2022-11-12T18:41:09.023Z,97.03
2022-11-12T18:43:31.512Z,97.78
2022-11-12T18:45:55.186Z,97.80
2022-11-12T18:48:17.426Z,97.70
2022-11-12T18:50:39.659Z,97.64
2022-11-12T18:53:01.859Z,97.93
2022-11-12T18:55:24.096Z,98.45
2022-11-12T18:57:46.327Z,98.05
2022-11-12T19:00:09.091Z,98.46
2022-11-12T19:02:31.356Z,98.70
2022-11-12T19:04:53.647Z,98.66
2022-11-12T19:06:55.989Z,98.83
2022-11-12T19:09:00.294Z,99.29
2022-11-12T19:11:13.162Z,99.99
2022-11-12T19:13:15.966Z,100.00
2022-11-12T19:15:22.776Z,100.00
2022-11-12T19:17:31.044Z,100.00
2022-11-12T19:19:33.536Z,100.00
2022-11-12T19:21:36.599Z,100.00
2022-11-12T19:23:38.791Z,100.00
2022-11-12T19:25:41.369Z,100.00
2022-11-12T19:27:43.538Z,100.00
2022-11-12T19:29:47.865Z,100.00
2022-11-12T19:31:50.639Z,100.00
2022-11-12T19:33:53.202Z,100.00
2022-11-12T19:35:55.724Z,100.00
2022-11-12T19:37:58.248Z,100.00
2022-11-12T19:40:00.970Z,100.00
2022-11-12T19:42:02.961Z,100.00
2022-11-12T19:44:05.096Z,100.00
2022-11-12T19:46:11.101Z,100.00
2022-11-12T19:48:13.811Z,100.00
2022-11-12T19:50:18.800Z,100.00
2022-11-12T19:52:24.611Z,100.00
2022-11-12T19:54:26.790Z,100.00
2022-11-12T19:56:32.224Z,100.00
2022-11-12T19:58:34.748Z,100.00
2022-11-12T20:00:37.781Z,100.00
2022-11-12T20:02:40.107Z,100.00
2022-11-12T20:04:42.585Z,100.00
2022-11-12T20:06:44.875Z,100.00
2022-11-12T20:08:47.845Z,100.00
2022-11-12T20:10:50.626Z,100.00
2022-11-12T20:12:53.655Z,100.00
2022-11-12T20:14:55.687Z,100.00
2022-11-12T20:16:58.336Z,100.00
2022-11-12T20:19:01.547Z,100.00
2022-11-12T20:21:05.051Z,100.00
2022-11-12T20:23:08.077Z,100.00
2022-11-12T20:25:10.787Z,100.00
2022-11-12T20:27:13.672Z,100.00
2022-11-12T20:29:16.162Z,100.00
2022-11-12T20:31:22.221Z,100.00
2022-11-12T20:33:24.885Z,100.00
2022-11-12T20:35:27.462Z,100.00
2022-11-12T20:37:29.992Z,100.00
2022-11-12T20:39:32.706Z,100.00
2022-11-12T20:41:35.332Z,100.00
2022-11-12T20:43:37.891Z,100.00
2022-11-12T20:45:40.334Z,100.00
2022-11-12T20:47:42.932Z,100.00
2022-11-12T20:49:45.531Z,100.00
2022-11-12T20:51:48.070Z,100.00
2022-11-12T20:53:54.540Z,100.00
2022-11-12T20:56:13.861Z,100.00
2022-11-12T20:58:16.993Z,100.00
2022-11-12T21:00:23.990Z,100.00
2022-11-12T21:02:26.726Z,100.00
2022-11-12T21:04:29.356Z,100.00
2022-11-12T21:06:32.132Z,100.00
2022-11-12T21:08:35.036Z,100.00
2022-11-12T21:10:37.862Z,100.00
2022-11-12T21:12:40.515Z,100.00
2022-11-12T21:14:49.023Z,100.00
2022-11-12T21:16:52.279Z,100.00
2022-11-12T21:18:55.145Z,100.00
2022-11-12T21:21:02.120Z,100.00
2022-11-12T21:23:04.700Z,100.00
2022-11-12T21:25:07.753Z,100.00
2022-11-12T21:27:11.510Z,100.00
2022-11-12T21:29:18.696Z,100.00
2022-11-12T21:31:22.005Z,100.00
2022-11-12T21:33:24.708Z,100.00
2022-11-12T21:35:27.318Z,100.00
2022-11-12T21:37:29.191Z,100.00
2022-11-12T21:39:31.728Z,100.00
2022-11-12T21:41:34.334Z,100.00
2022-11-12T21:43:40.921Z,100.00
2022-11-12T21:45:46.632Z,100.00
2022-11-12T21:47:49.316Z,100.00
2022-11-12T21:49:51.965Z,100.00
2022-11-12T21:51:54.442Z,100.00
2022-11-12T21:54:07.050Z,100.00
2022-11-12T21:56:18.444Z,100.00
2022-11-12T21:58:21.366Z,100.00
2022-11-12T22:02:46.820Z,100.00
2022-11-12T22:04:49.419Z,100.00
2022-11-12T22:06:52.204Z,100.00
2022-11-12T22:08:55.596Z,100.00
2022-11-12T22:11:24.793Z,100.00
2022-11-12T22:13:27.751Z,100.00
2022-11-12T22:15:30.116Z,100.00
2022-11-12T22:17:33.580Z,100.00
2022-11-12T22:19:35.987Z,100.00
2022-11-12T22:21:44.506Z,100.00
2022-11-12T22:23:46.687Z,100.00
2022-11-12T22:25:50.638Z,100.00
2022-11-12T22:27:53.225Z,100.00
2022-11-12T22:29:56.079Z,100.00
2022-11-12T22:32:01.820Z,100.00
2022-11-12T22:34:04.237Z,100.00
2022-11-12T22:36:08.967Z,100.00
2022-11-12T22:38:12.097Z,100.00
2022-11-12T22:40:14.255Z,100.00
2022-11-12T22:42:34.599Z,100.00
2022-11-12T22:44:55.132Z,100.00
2022-11-12T22:47:17.343Z,100.00
2022-11-12T22:49:39.562Z,100.00
2022-11-12T22:52:01.780Z,100.00
2022-11-12T22:54:24.007Z,100.00
2022-11-12T22:56:46.272Z,100.00
2022-11-12T22:59:10.418Z,100.00
2022-11-12T23:01:34.219Z,100.00
2022-11-12T23:03:59.535Z,100.00
2022-11-12T23:06:21.858Z,100.00
2022-11-12T23:08:44.181Z,100.00
2022-11-12T23:11:08.598Z,100.00
2022-11-12T23:13:30.797Z,100.00
2022-11-12T23:15:53.028Z,100.00
2022-11-12T23:18:15.265Z,100.00
2022-11-12T23:20:37.522Z,100.00
2022-11-12T23:22:59.750Z,100.00
2022-11-12T23:25:21.980Z,100.00
2022-11-12T23:27:44.198Z,100.00
2022-11-12T23:30:06.839Z,100.00
2022-11-12T23:32:29.057Z,100.00
2022-11-12T23:34:51.274Z,100.00
2022-11-12T23:37:13.507Z,100.00
2022-11-12T23:39:35.735Z,100.00
2022-11-12T23:41:57.952Z,100.00
2022-11-12T23:44:20.163Z,100.00
2022-11-12T23:46:42.406Z,100.00
2022-11-12T23:49:04.606Z,100.00
2022-11-12T23:51:26.961Z,100.00
2022-11-12T23:53:49.215Z,100.00
2022-11-12T23:56:12.799Z,100.00
2022-11-12T23:58:35.553Z,100.00
